sensor_id;sensor_type;location;lat;lon;timestamp;pressure;altitude;pressure_sealevel;temperature
19666;BMP180;9980;51.020;7.772;2023-07-24T00:01:15;96691.00;;;21.80
19666;BMP180;9980;51.020;7.772;2023-07-24T00:03:42;96690.00;;;21.80
19666;BMP180;9980;51.020;7.772;2023-07-24T00:06:09;96694.00;;;21.80
19666;BMP180;9980;51.020;7.772;2023-07-24T00:08:37;96677.00;;;21.70
19666;BMP180;9980;51.020;7.772;2023-07-24T00:11:08;96685.00;;;21.70
19666;BMP180;9980;51.020;7.772;2023-07-24T00:13:35;96684.00;;;21.70
19666;BMP180;9980;51.020;7.772;2023-07-24T00:16:08;96683.00;;;21.70
19666;BMP180;9980;51.020;7.772;2023-07-24T00:18:35;96680.00;;;21.70
19666;BMP180;9980;51.020;7.772;2023-07-24T00:21:02;96684.00;;;21.70
19666;BMP180;9980;51.020;7.772;2023-07-24T00:23:29;96676.00;;;21.70
19666;BMP180;9980;51.020;7.772;2023-07-24T00:25:56;96676.00;;;21.70
19666;BMP180;9980;51.020;7.772;2023-07-24T00:28:23;96680.00;;;21.70
19666;BMP180;9980;51.020;7.772;2023-07-24T00:30:50;96683.00;;;21.70
19666;BMP180;9980;51.020;7.772;2023-07-24T00:33:17;96671.00;;;21.70
19666;BMP180;9980;51.020;7.772;2023-07-24T00:35:44;96667.00;;;21.70
19666;BMP180;9980;51.020;7.772;2023-07-24T00:38:12;96662.00;;;21.70
19666;BMP180;9980;51.020;7.772;2023-07-24T00:40:40;96665.00;;;21.70
19666;BMP180;9980;51.020;7.772;2023-07-24T00:43:07;96661.00;;;21.70
19666;BMP180;9980;51.020;7.772;2023-07-24T00:45:34;96664.00;;;21.70
19666;BMP180;9980;51.020;7.772;2023-07-24T00:48:02;96668.00;;;21.70
19666;BMP180;9980;51.020;7.772;2023-07-24T00:50:30;96661.00;;;21.70
19666;BMP180;9980;51.020;7.772;2023-07-24T00:52:58;96655.00;;;21.70
19666;BMP180;9980;51.020;7.772;2023-07-24T00:55:25;96655.00;;;21.70
19666;BMP180;9980;51.020;7.772;2023-07-24T00:57:53;96652.00;;;21.70
19666;BMP180;9980;51.020;7.772;2023-07-24T01:00:26;96650.00;;;21.70
19666;BMP180;9980;51.020;7.772;2023-07-24T01:02:55;96647.00;;;21.70
19666;BMP180;9980;51.020;7.772;2023-07-24T01:05:25;96649.00;;;21.70
19666;BMP180;9980;51.020;7.772;2023-07-24T01:07:55;96645.00;;;21.70
19666;BMP180;9980;51.020;7.772;2023-07-24T01:10:21;96621.00;;;21.70
19666;BMP180;9980;51.020;7.772;2023-07-24T01:13:08;96658.00;;;21.60
19666;BMP180;9980;51.020;7.772;2023-07-24T01:15:57;96650.00;;;21.60
19666;BMP180;9980;51.020;7.772;2023-07-24T01:18:29;96653.00;;;21.60
19666;BMP180;9980;51.020;7.772;2023-07-24T01:20:58;96639.00;;;21.70
19666;BMP180;9980;51.020;7.772;2023-07-24T01:26:20;96621.00;;;21.60
19666;BMP180;9980;51.020;7.772;2023-07-24T01:28:48;96629.00;;;21.60
19666;BMP180;9980;51.020;7.772;2023-07-24T01:31:15;96627.00;;;21.60
19666;BMP180;9980;51.020;7.772;2023-07-24T01:33:44;96621.00;;;21.60
19666;BMP180;9980;51.020;7.772;2023-07-24T01:36:18;96615.00;;;21.60
19666;BMP180;9980;51.020;7.772;2023-07-24T01:38:48;96608.00;;;21.60
19666;BMP180;9980;51.020;7.772;2023-07-24T01:41:17;96585.00;;;21.60
19666;BMP180;9980;51.020;7.772;2023-07-24T01:43:44;96595.00;;;21.60
19666;BMP180;9980;51.020;7.772;2023-07-24T01:46:11;96599.00;;;21.60
19666;BMP180;9980;51.020;7.772;2023-07-24T01:48:38;96601.00;;;21.60
19666;BMP180;9980;51.020;7.772;2023-07-24T01:51:04;96598.00;;;21.60
19666;BMP180;9980;51.020;7.772;2023-07-24T01:53:32;96596.00;;;21.60
19666;BMP180;9980;51.020;7.772;2023-07-24T01:55:59;96602.00;;;21.60
19666;BMP180;9980;51.020;7.772;2023-07-24T01:58:26;96597.00;;;21.60
19666;BMP180;9980;51.020;7.772;2023-07-24T02:00:55;96588.00;;;21.60
19666;BMP180;9980;51.020;7.772;2023-07-24T02:03:23;96578.00;;;21.60
19666;BMP180;9980;51.020;7.772;2023-07-24T02:05:50;96574.00;;;21.60
19666;BMP180;9980;51.020;7.772;2023-07-24T02:08:18;96591.00;;;21.50
19666;BMP180;9980;51.020;7.772;2023-07-24T02:10:49;96577.00;;;21.50
19666;BMP180;9980;51.020;7.772;2023-07-24T02:13:17;96582.00;;;21.50
19666;BMP180;9980;51.020;7.772;2023-07-24T02:15:48;96574.00;;;21.50
19666;BMP180;9980;51.020;7.772;2023-07-24T02:18:15;96573.00;;;21.50
19666;BMP180;9980;51.020;7.772;2023-07-24T02:20:52;96570.00;;;21.50
19666;BMP180;9980;51.020;7.772;2023-07-24T02:23:20;96578.00;;;21.50
19666;BMP180;9980;51.020;7.772;2023-07-24T02:25:51;96581.00;;;21.50
19666;BMP180;9980;51.020;7.772;2023-07-24T02:28:19;96568.00;;;21.50
19666;BMP180;9980;51.020;7.772;2023-07-24T02:30:49;96563.00;;;21.40
19666;BMP180;9980;51.020;7.772;2023-07-24T02:33:17;96561.00;;;21.50
19666;BMP180;9980;51.020;7.772;2023-07-24T02:35:44;96579.00;;;21.50
19666;BMP180;9980;51.020;7.772;2023-07-24T02:38:13;96576.00;;;21.50
19666;BMP180;9980;51.020;7.772;2023-07-24T02:40:41;96575.00;;;21.50
19666;BMP180;9980;51.020;7.772;2023-07-24T02:43:08;96553.00;;;21.50
19666;BMP180;9980;51.020;7.772;2023-07-24T02:45:37;96567.00;;;21.50
19666;BMP180;9980;51.020;7.772;2023-07-24T02:48:05;96569.00;;;21.50
19666;BMP180;9980;51.020;7.772;2023-07-24T02:50:35;96557.00;;;21.50
19666;BMP180;9980;51.020;7.772;2023-07-24T02:53:03;96563.00;;;21.50
19666;BMP180;9980;51.020;7.772;2023-07-24T02:55:30;96562.00;;;21.50
19666;BMP180;9980;51.020;7.772;2023-07-24T02:57:57;96548.00;;;21.50
19666;BMP180;9980;51.020;7.772;2023-07-24T03:00:24;96547.00;;;21.50
19666;BMP180;9980;51.020;7.772;2023-07-24T03:02:52;96541.00;;;21.40
19666;BMP180;9980;51.020;7.772;2023-07-24T03:05:20;96537.00;;;21.40
19666;BMP180;9980;51.020;7.772;2023-07-24T03:07:47;96539.00;;;21.40
19666;BMP180;9980;51.020;7.772;2023-07-24T03:10:13;96538.00;;;21.40
19666;BMP180;9980;51.020;7.772;2023-07-24T03:12:40;96535.00;;;21.40
19666;BMP180;9980;51.020;7.772;2023-07-24T03:15:08;96521.00;;;21.40
19666;BMP180;9980;51.020;7.772;2023-07-24T03:17:35;96531.00;;;21.40
19666;BMP180;9980;51.020;7.772;2023-07-24T03:20:13;96523.00;;;21.40
19666;BMP180;9980;51.020;7.772;2023-07-24T03:22:42;96516.00;;;21.40
19666;BMP180;9980;51.020;7.772;2023-07-24T03:25:09;96512.00;;;21.40
19666;BMP180;9980;51.020;7.772;2023-07-24T03:27:37;96505.00;;;21.40
19666;BMP180;9980;51.020;7.772;2023-07-24T03:30:05;96504.00;;;21.40
19666;BMP180;9980;51.020;7.772;2023-07-24T03:32:32;96509.00;;;21.40
19666;BMP180;9980;51.020;7.772;2023-07-24T03:34:59;96499.00;;;21.40
19666;BMP180;9980;51.020;7.772;2023-07-24T03:37:26;96479.00;;;21.40
19666;BMP180;9980;51.020;7.772;2023-07-24T03:39:53;96467.00;;;21.40
19666;BMP180;9980;51.020;7.772;2023-07-24T03:42:28;96472.00;;;21.30
19666;BMP180;9980;51.020;7.772;2023-07-24T03:44:56;96469.00;;;21.30
19666;BMP180;9980;51.020;7.772;2023-07-24T03:47:24;96462.00;;;21.30
19666;BMP180;9980;51.020;7.772;2023-07-24T03:49:51;96469.00;;;21.30
19666;BMP180;9980;51.020;7.772;2023-07-24T03:52:18;96467.00;;;21.30
19666;BMP180;9980;51.020;7.772;2023-07-24T03:54:45;96463.00;;;21.30
19666;BMP180;9980;51.020;7.772;2023-07-24T03:57:12;96460.00;;;21.30
19666;BMP180;9980;51.020;7.772;2023-07-24T03:59:39;96465.00;;;21.20
19666;BMP180;9980;51.020;7.772;2023-07-24T04:02:06;96471.00;;;21.20
19666;BMP180;9980;51.020;7.772;2023-07-24T04:04:37;96444.00;;;21.20
19666;BMP180;9980;51.020;7.772;2023-07-24T04:07:05;96450.00;;;21.20
19666;BMP180;9980;51.020;7.772;2023-07-24T04:09:32;96453.00;;;21.20
19666;BMP180;9980;51.020;7.772;2023-07-24T04:12:00;96446.00;;;21.10
19666;BMP180;9980;51.020;7.772;2023-07-24T04:14:27;96451.00;;;21.10
19666;BMP180;9980;51.020;7.772;2023-07-24T04:16:54;96463.00;;;21.10
19666;BMP180;9980;51.020;7.772;2023-07-24T04:19:22;96463.00;;;21.10
19666;BMP180;9980;51.020;7.772;2023-07-24T04:21:49;96457.00;;;21.10
19666;BMP180;9980;51.020;7.772;2023-07-24T04:24:16;96466.00;;;21.10
19666;BMP180;9980;51.020;7.772;2023-07-24T04:26:43;96451.00;;;21.10
19666;BMP180;9980;51.020;7.772;2023-07-24T04:29:10;96459.00;;;21.10
19666;BMP180;9980;51.020;7.772;2023-07-24T04:31:37;96441.00;;;21.10
19666;BMP180;9980;51.020;7.772;2023-07-24T04:34:05;96446.00;;;21.10
19666;BMP180;9980;51.020;7.772;2023-07-24T04:36:31;96437.00;;;21.10
19666;BMP180;9980;51.020;7.772;2023-07-24T04:38:59;96437.00;;;21.10
19666;BMP180;9980;51.020;7.772;2023-07-24T04:41:26;96443.00;;;21.10
19666;BMP180;9980;51.020;7.772;2023-07-24T04:43:53;96446.00;;;21.10
19666;BMP180;9980;51.020;7.772;2023-07-24T04:46:20;96460.00;;;21.20
19666;BMP180;9980;51.020;7.772;2023-07-24T04:48:47;96456.00;;;21.20
19666;BMP180;9980;51.020;7.772;2023-07-24T04:51:14;96449.00;;;21.20
19666;BMP180;9980;51.020;7.772;2023-07-24T04:53:41;96456.00;;;21.20
19666;BMP180;9980;51.020;7.772;2023-07-24T04:56:08;96458.00;;;21.30
19666;BMP180;9980;51.020;7.772;2023-07-24T04:58:35;96485.00;;;21.30
19666;BMP180;9980;51.020;7.772;2023-07-24T05:01:03;96472.00;;;21.30
19666;BMP180;9980;51.020;7.772;2023-07-24T05:03:33;96463.00;;;21.30
19666;BMP180;9980;51.020;7.772;2023-07-24T05:06:00;96467.00;;;21.30
19666;BMP180;9980;51.020;7.772;2023-07-24T05:08:27;96478.00;;;21.30
19666;BMP180;9980;51.020;7.772;2023-07-24T05:10:58;96486.00;;;21.30
19666;BMP180;9980;51.020;7.772;2023-07-24T05:13:26;96473.00;;;21.40
19666;BMP180;9980;51.020;7.772;2023-07-24T05:15:53;96476.00;;;21.40
19666;BMP180;9980;51.020;7.772;2023-07-24T05:18:21;96466.00;;;21.40
19666;BMP180;9980;51.020;7.772;2023-07-24T05:20:49;96466.00;;;21.40
19666;BMP180;9980;51.020;7.772;2023-07-24T05:23:18;96478.00;;;21.50
19666;BMP180;9980;51.020;7.772;2023-07-24T05:25:45;96475.00;;;21.50
19666;BMP180;9980;51.020;7.772;2023-07-24T05:28:12;96467.00;;;21.50
19666;BMP180;9980;51.020;7.772;2023-07-24T05:30:39;96469.00;;;21.50
19666;BMP180;9980;51.020;7.772;2023-07-24T05:33:06;96468.00;;;21.60
19666;BMP180;9980;51.020;7.772;2023-07-24T05:35:33;96470.00;;;21.60
19666;BMP180;9980;51.020;7.772;2023-07-24T05:38:01;96465.00;;;21.60
19666;BMP180;9980;51.020;7.772;2023-07-24T05:40:28;96463.00;;;21.60
19666;BMP180;9980;51.020;7.772;2023-07-24T05:42:55;96457.00;;;21.70
19666;BMP180;9980;51.020;7.772;2023-07-24T05:45:22;96460.00;;;21.70
19666;BMP180;9980;51.020;7.772;2023-07-24T05:47:49;96475.00;;;21.70
19666;BMP180;9980;51.020;7.772;2023-07-24T05:50:16;96471.00;;;21.70
19666;BMP180;9980;51.020;7.772;2023-07-24T05:52:43;96493.00;;;21.80
19666;BMP180;9980;51.020;7.772;2023-07-24T05:55:11;96487.00;;;21.80
19666;BMP180;9980;51.020;7.772;2023-07-24T05:57:38;96484.00;;;21.90
19666;BMP180;9980;51.020;7.772;2023-07-24T06:00:06;96485.00;;;21.90
19666;BMP180;9980;51.020;7.772;2023-07-24T06:02:41;96494.00;;;22.00
19666;BMP180;9980;51.020;7.772;2023-07-24T06:05:09;96488.00;;;22.00
19666;BMP180;9980;51.020;7.772;2023-07-24T06:07:35;96483.00;;;22.10
19666;BMP180;9980;51.020;7.772;2023-07-24T06:10:03;96491.00;;;22.10
19666;BMP180;9980;51.020;7.772;2023-07-24T06:12:30;96497.00;;;22.10
19666;BMP180;9980;51.020;7.772;2023-07-24T06:14:57;96495.00;;;22.20
19666;BMP180;9980;51.020;7.772;2023-07-24T06:17:24;96478.00;;;22.20
19666;BMP180;9980;51.020;7.772;2023-07-24T06:19:51;96497.00;;;22.20
19666;BMP180;9980;51.020;7.772;2023-07-24T06:22:18;96498.00;;;22.30
19666;BMP180;9980;51.020;7.772;2023-07-24T06:24:45;96501.00;;;22.30
19666;BMP180;9980;51.020;7.772;2023-07-24T06:27:12;96491.00;;;22.30
19666;BMP180;9980;51.020;7.772;2023-07-24T06:29:39;96488.00;;;22.30
19666;BMP180;9980;51.020;7.772;2023-07-24T06:32:07;96498.00;;;22.30
19666;BMP180;9980;51.020;7.772;2023-07-24T06:34:34;96509.00;;;22.30
19666;BMP180;9980;51.020;7.772;2023-07-24T06:37:01;96517.00;;;22.40
19666;BMP180;9980;51.020;7.772;2023-07-24T06:39:46;96519.00;;;22.40
19666;BMP180;9980;51.020;7.772;2023-07-24T06:42:13;96515.00;;;22.50
19666;BMP180;9980;51.020;7.772;2023-07-24T06:44:40;96499.00;;;22.50
19666;BMP180;9980;51.020;7.772;2023-07-24T06:47:07;96497.00;;;22.60
19666;BMP180;9980;51.020;7.772;2023-07-24T06:49:34;96502.00;;;22.60
19666;BMP180;9980;51.020;7.772;2023-07-24T06:52:01;96500.00;;;22.70
19666;BMP180;9980;51.020;7.772;2023-07-24T06:54:28;96491.00;;;22.70
19666;BMP180;9980;51.020;7.772;2023-07-24T06:56:55;96494.00;;;22.70
19666;BMP180;9980;51.020;7.772;2023-07-24T06:59:23;96495.00;;;22.70
19666;BMP180;9980;51.020;7.772;2023-07-24T07:01:50;96484.00;;;22.80
19666;BMP180;9980;51.020;7.772;2023-07-24T07:04:17;96492.00;;;22.90
19666;BMP180;9980;51.020;7.772;2023-07-24T07:06:44;96485.00;;;23.00
19666;BMP180;9980;51.020;7.772;2023-07-24T07:09:11;96483.00;;;23.00
19666;BMP180;9980;51.020;7.772;2023-07-24T07:11:38;96480.00;;;23.20
19666;BMP180;9980;51.020;7.772;2023-07-24T07:14:05;96489.00;;;23.30
19666;BMP180;9980;51.020;7.772;2023-07-24T07:16:35;96489.00;;;23.40
19666;BMP180;9980;51.020;7.772;2023-07-24T07:19:02;96490.00;;;23.40
19666;BMP180;9980;51.020;7.772;2023-07-24T07:21:29;96475.00;;;23.50
19666;BMP180;9980;51.020;7.772;2023-07-24T07:23:56;96465.00;;;23.60
19666;BMP180;9980;51.020;7.772;2023-07-24T07:26:23;96472.00;;;23.60
19666;BMP180;9980;51.020;7.772;2023-07-24T07:28:50;96470.00;;;23.70
19666;BMP180;9980;51.020;7.772;2023-07-24T07:31:17;96474.00;;;23.80
19666;BMP180;9980;51.020;7.772;2023-07-24T07:33:44;96472.00;;;23.80
19666;BMP180;9980;51.020;7.772;2023-07-24T07:36:11;96492.00;;;23.90
19666;BMP180;9980;51.020;7.772;2023-07-24T07:38:38;96477.00;;;23.90
19666;BMP180;9980;51.020;7.772;2023-07-24T07:41:06;96486.00;;;23.90
19666;BMP180;9980;51.020;7.772;2023-07-24T07:43:33;96484.00;;;24.00
19666;BMP180;9980;51.020;7.772;2023-07-24T07:46:03;96484.00;;;24.00
19666;BMP180;9980;51.020;7.772;2023-07-24T07:48:30;96484.00;;;24.00
19666;BMP180;9980;51.020;7.772;2023-07-24T07:50:57;96477.00;;;24.10
19666;BMP180;9980;51.020;7.772;2023-07-24T07:53:24;96466.00;;;24.20
19666;BMP180;9980;51.020;7.772;2023-07-24T07:55:58;96473.00;;;24.20
19666;BMP180;9980;51.020;7.772;2023-07-24T07:58:26;96475.00;;;24.30
19666;BMP180;9980;51.020;7.772;2023-07-24T08:00:53;96466.00;;;24.40
19666;BMP180;9980;51.020;7.772;2023-07-24T08:03:21;96463.00;;;24.50
19666;BMP180;9980;51.020;7.772;2023-07-24T08:05:48;96463.00;;;24.60
19666;BMP180;9980;51.020;7.772;2023-07-24T08:08:15;96456.00;;;24.60
19666;BMP180;9980;51.020;7.772;2023-07-24T08:10:42;96463.00;;;24.70
19666;BMP180;9980;51.020;7.772;2023-07-24T08:13:08;96458.00;;;24.70
19666;BMP180;9980;51.020;7.772;2023-07-24T08:15:37;96456.00;;;24.80
19666;BMP180;9980;51.020;7.772;2023-07-24T08:18:05;96439.00;;;24.80
19666;BMP180;9980;51.020;7.772;2023-07-24T08:20:35;96453.00;;;24.80
19666;BMP180;9980;51.020;7.772;2023-07-24T08:23:03;96467.00;;;24.90
19666;BMP180;9980;51.020;7.772;2023-07-24T08:25:30;96463.00;;;24.90
19666;BMP180;9980;51.020;7.772;2023-07-24T08:27:57;96454.00;;;24.90
19666;BMP180;9980;51.020;7.772;2023-07-24T08:30:27;96459.00;;;25.00
19666;BMP180;9980;51.020;7.772;2023-07-24T08:32:55;96461.00;;;25.00
19666;BMP180;9980;51.020;7.772;2023-07-24T08:35:23;96453.00;;;25.00
19666;BMP180;9980;51.020;7.772;2023-07-24T08:37:50;96444.00;;;25.10
19666;BMP180;9980;51.020;7.772;2023-07-24T08:40:17;96442.00;;;25.10
19666;BMP180;9980;51.020;7.772;2023-07-24T08:42:48;96440.00;;;25.10
19666;BMP180;9980;51.020;7.772;2023-07-24T08:45:16;96438.00;;;25.20
19666;BMP180;9980;51.020;7.772;2023-07-24T08:47:44;96444.00;;;25.20
19666;BMP180;9980;51.020;7.772;2023-07-24T08:50:13;96445.00;;;25.30
19666;BMP180;9980;51.020;7.772;2023-07-24T08:52:42;96451.00;;;25.40
19666;BMP180;9980;51.020;7.772;2023-07-24T08:55:10;96448.00;;;25.50
19666;BMP180;9980;51.020;7.772;2023-07-24T08:57:38;96449.00;;;25.60
19666;BMP180;9980;51.020;7.772;2023-07-24T09:00:05;96445.00;;;25.70
19666;BMP180;9980;51.020;7.772;2023-07-24T09:02:34;96440.00;;;25.90
19666;BMP180;9980;51.020;7.772;2023-07-24T09:05:02;96447.00;;;26.00
19666;BMP180;9980;51.020;7.772;2023-07-24T09:07:31;96425.00;;;26.10
19666;BMP180;9980;51.020;7.772;2023-07-24T09:09:58;96416.00;;;26.20
19666;BMP180;9980;51.020;7.772;2023-07-24T09:12:26;96419.00;;;26.30
19666;BMP180;9980;51.020;7.772;2023-07-24T09:15:06;96409.00;;;26.30
19666;BMP180;9980;51.020;7.772;2023-07-24T09:17:34;96410.00;;;26.40
19666;BMP180;9980;51.020;7.772;2023-07-24T09:20:02;96411.00;;;26.40
19666;BMP180;9980;51.020;7.772;2023-07-24T09:22:30;96412.00;;;26.50
19666;BMP180;9980;51.020;7.772;2023-07-24T09:24:57;96418.00;;;26.60
19666;BMP180;9980;51.020;7.772;2023-07-24T09:27:28;96413.00;;;26.60
19666;BMP180;9980;51.020;7.772;2023-07-24T09:29:57;96414.00;;;26.70
19666;BMP180;9980;51.020;7.772;2023-07-24T09:32:27;96417.00;;;26.70
19666;BMP180;9980;51.020;7.772;2023-07-24T09:34:55;96421.00;;;26.80
19666;BMP180;9980;51.020;7.772;2023-07-24T09:37:30;96402.00;;;26.80
19666;BMP180;9980;51.020;7.772;2023-07-24T09:39:57;96418.00;;;26.90
19666;BMP180;9980;51.020;7.772;2023-07-24T09:42:31;96414.00;;;26.90
19666;BMP180;9980;51.020;7.772;2023-07-24T09:44:59;96395.00;;;27.00
19666;BMP180;9980;51.020;7.772;2023-07-24T09:47:26;96396.00;;;27.00
19666;BMP180;9980;51.020;7.772;2023-07-24T09:50:13;96390.00;;;27.00
19666;BMP180;9980;51.020;7.772;2023-07-24T09:52:42;96380.00;;;27.00
19666;BMP180;9980;51.020;7.772;2023-07-24T09:55:21;96369.00;;;27.10
19666;BMP180;9980;51.020;7.772;2023-07-24T09:57:54;96368.00;;;27.20
19666;BMP180;9980;51.020;7.772;2023-07-24T10:00:22;96371.00;;;27.20
19666;BMP180;9980;51.020;7.772;2023-07-24T10:02:50;96380.00;;;27.20
19666;BMP180;9980;51.020;7.772;2023-07-24T10:05:18;96374.00;;;27.30
19666;BMP180;9980;51.020;7.772;2023-07-24T10:07:48;96365.00;;;27.30
19666;BMP180;9980;51.020;7.772;2023-07-24T10:10:17;96360.00;;;27.30
19666;BMP180;9980;51.020;7.772;2023-07-24T10:12:45;96349.00;;;27.40
19666;BMP180;9980;51.020;7.772;2023-07-24T10:15:12;96350.00;;;27.50
19666;BMP180;9980;51.020;7.772;2023-07-24T10:17:41;96351.00;;;27.50
19666;BMP180;9980;51.020;7.772;2023-07-24T10:20:11;96347.00;;;27.60
19666;BMP180;9980;51.020;7.772;2023-07-24T10:22:42;96368.00;;;27.70
19666;BMP180;9980;51.020;7.772;2023-07-24T10:25:10;96355.00;;;27.80
19666;BMP180;9980;51.020;7.772;2023-07-24T10:27:47;96353.00;;;27.90
19666;BMP180;9980;51.020;7.772;2023-07-24T10:30:16;96368.00;;;27.90
19666;BMP180;9980;51.020;7.772;2023-07-24T10:35:49;96368.00;;;27.90
19666;BMP180;9980;51.020;7.772;2023-07-24T10:38:17;96363.00;;;28.00
19666;BMP180;9980;51.020;7.772;2023-07-24T10:40:47;96374.00;;;28.00
19666;BMP180;9980;51.020;7.772;2023-07-24T10:43:20;96368.00;;;28.10
19666;BMP180;9980;51.020;7.772;2023-07-24T10:45:52;96375.00;;;28.10
19666;BMP180;9980;51.020;7.772;2023-07-24T10:48:25;96374.00;;;28.10
19666;BMP180;9980;51.020;7.772;2023-07-24T10:50:52;96365.00;;;28.20
19666;BMP180;9980;51.020;7.772;2023-07-24T10:53:23;96373.00;;;28.20
19666;BMP180;9980;51.020;7.772;2023-07-24T10:55:51;96365.00;;;28.30
19666;BMP180;9980;51.020;7.772;2023-07-24T10:58:19;96355.00;;;28.30
19666;BMP180;9980;51.020;7.772;2023-07-24T11:00:46;96361.00;;;28.30
19666;BMP180;9980;51.020;7.772;2023-07-24T11:03:15;96372.00;;;28.30
19666;BMP180;9980;51.020;7.772;2023-07-24T11:05:45;96364.00;;;28.40
19666;BMP180;9980;51.020;7.772;2023-07-24T11:08:16;96346.00;;;28.40
19666;BMP180;9980;51.020;7.772;2023-07-24T11:10:50;96350.00;;;28.40
19666;BMP180;9980;51.020;7.772;2023-07-24T11:13:25;96336.00;;;28.40
19666;BMP180;9980;51.020;7.772;2023-07-24T11:15:53;96330.00;;;28.50
19666;BMP180;9980;51.020;7.772;2023-07-24T11:18:22;96346.00;;;28.60
19666;BMP180;9980;51.020;7.772;2023-07-24T11:20:56;96325.00;;;28.60
19666;BMP180;9980;51.020;7.772;2023-07-24T11:23:24;96331.00;;;28.70
19666;BMP180;9980;51.020;7.772;2023-07-24T11:25:54;96328.00;;;28.70
19666;BMP180;9980;51.020;7.772;2023-07-24T11:28:22;96317.00;;;28.70
19666;BMP180;9980;51.020;7.772;2023-07-24T11:30:49;96322.00;;;28.70
19666;BMP180;9980;51.020;7.772;2023-07-24T11:33:19;96326.00;;;28.70
19666;BMP180;9980;51.020;7.772;2023-07-24T11:35:47;96316.00;;;28.80
19666;BMP180;9980;51.020;7.772;2023-07-24T11:38:16;96311.00;;;28.80
19666;BMP180;9980;51.020;7.772;2023-07-24T11:40:44;96297.00;;;28.80
19666;BMP180;9980;51.020;7.772;2023-07-24T11:43:22;96306.00;;;28.80
19666;BMP180;9980;51.020;7.772;2023-07-24T11:45:52;96296.00;;;28.80
19666;BMP180;9980;51.020;7.772;2023-07-24T11:48:24;96280.00;;;28.80
19666;BMP180;9980;51.020;7.772;2023-07-24T11:50:56;96284.00;;;28.80
19666;BMP180;9980;51.020;7.772;2023-07-24T11:53:31;96268.00;;;28.90
19666;BMP180;9980;51.020;7.772;2023-07-24T11:55:59;96273.00;;;29.00
19666;BMP180;9980;51.020;7.772;2023-07-24T11:58:29;96256.00;;;29.10
19666;BMP180;9980;51.020;7.772;2023-07-24T12:00:57;96240.00;;;29.10
19666;BMP180;9980;51.020;7.772;2023-07-24T12:03:28;96223.00;;;29.10
19666;BMP180;9980;51.020;7.772;2023-07-24T12:05:56;96240.00;;;29.20
19666;BMP180;9980;51.020;7.772;2023-07-24T12:08:34;96252.00;;;29.10
19666;BMP180;9980;51.020;7.772;2023-07-24T12:11:02;96237.00;;;29.20
19666;BMP180;9980;51.020;7.772;2023-07-24T12:13:29;96237.00;;;29.20
19666;BMP180;9980;51.020;7.772;2023-07-24T12:15:58;96240.00;;;29.30
19666;BMP180;9980;51.020;7.772;2023-07-24T12:18:25;96241.00;;;29.30
19666;BMP180;9980;51.020;7.772;2023-07-24T12:20:52;96232.00;;;29.30
19666;BMP180;9980;51.020;7.772;2023-07-24T12:23:19;96207.00;;;29.30
19666;BMP180;9980;51.020;7.772;2023-07-24T12:25:47;96184.00;;;29.30
19666;BMP180;9980;51.020;7.772;2023-07-24T12:28:14;96181.00;;;29.30
19666;BMP180;9980;51.020;7.772;2023-07-24T12:30:40;96181.00;;;29.30
19666;BMP180;9980;51.020;7.772;2023-07-24T12:33:07;96173.00;;;29.20
19666;BMP180;9980;51.020;7.772;2023-07-24T12:35:34;96166.00;;;29.20
19666;BMP180;9980;51.020;7.772;2023-07-24T12:38:01;96176.00;;;29.10
19666;BMP180;9980;51.020;7.772;2023-07-24T12:40:28;96228.00;;;29.00
19666;BMP180;9980;51.020;7.772;2023-07-24T12:42:55;96248.00;;;29.00
19666;BMP180;9980;51.020;7.772;2023-07-24T12:45:22;96260.00;;;28.80
19666;BMP180;9980;51.020;7.772;2023-07-24T12:47:49;96275.00;;;28.70
19666;BMP180;9980;51.020;7.772;2023-07-24T12:50:16;96285.00;;;28.50
19666;BMP180;9980;51.020;7.772;2023-07-24T12:52:44;96302.00;;;28.30
19666;BMP180;9980;51.020;7.772;2023-07-24T12:55:11;96330.00;;;28.10
19666;BMP180;9980;51.020;7.772;2023-07-24T12:57:38;96311.00;;;27.90
19666;BMP180;9980;51.020;7.772;2023-07-24T13:00:06;96314.00;;;27.70
19666;BMP180;9980;51.020;7.772;2023-07-24T13:02:33;96310.00;;;27.50
19666;BMP180;9980;51.020;7.772;2023-07-24T13:05:01;96310.00;;;27.30
19666;BMP180;9980;51.020;7.772;2023-07-24T13:07:27;96322.00;;;27.20
19666;BMP180;9980;51.020;7.772;2023-07-24T13:09:56;96336.00;;;27.00
19666;BMP180;9980;51.020;7.772;2023-07-24T13:12:23;96342.00;;;26.90
19666;BMP180;9980;51.020;7.772;2023-07-24T13:14:50;96342.00;;;26.70
19666;BMP180;9980;51.020;7.772;2023-07-24T13:17:16;96343.00;;;26.60
19666;BMP180;9980;51.020;7.772;2023-07-24T13:19:43;96340.00;;;26.40
19666;BMP180;9980;51.020;7.772;2023-07-24T13:22:10;96345.00;;;26.30
19666;BMP180;9980;51.020;7.772;2023-07-24T13:24:37;96342.00;;;26.10
19666;BMP180;9980;51.020;7.772;2023-07-24T13:27:05;96338.00;;;26.00
19666;BMP180;9980;51.020;7.772;2023-07-24T13:29:32;96349.00;;;25.90
19666;BMP180;9980;51.020;7.772;2023-07-24T13:31:58;96349.00;;;25.80
19666;BMP180;9980;51.020;7.772;2023-07-24T13:34:25;96349.00;;;25.70
19666;BMP180;9980;51.020;7.772;2023-07-24T13:36:52;96308.00;;;25.60
19666;BMP180;9980;51.020;7.772;2023-07-24T13:39:19;96292.00;;;25.60
19666;BMP180;9980;51.020;7.772;2023-07-24T13:41:46;96281.00;;;25.60
19666;BMP180;9980;51.020;7.772;2023-07-24T13:44:13;96267.00;;;25.70
19666;BMP180;9980;51.020;7.772;2023-07-24T13:46:40;96250.00;;;25.70
19666;BMP180;9980;51.020;7.772;2023-07-24T13:49:07;96253.00;;;25.80
19666;BMP180;9980;51.020;7.772;2023-07-24T13:51:34;96257.00;;;25.90
19666;BMP180;9980;51.020;7.772;2023-07-24T13:54:01;96265.00;;;25.90
19666;BMP180;9980;51.020;7.772;2023-07-24T13:56:29;96267.00;;;25.90
19666;BMP180;9980;51.020;7.772;2023-07-24T13:59:00;96244.00;;;25.90
19666;BMP180;9980;51.020;7.772;2023-07-24T14:01:27;96274.00;;;25.90
19666;BMP180;9980;51.020;7.772;2023-07-24T14:03:54;96272.00;;;25.90
19666;BMP180;9980;51.020;7.772;2023-07-24T14:06:21;96258.00;;;25.80
19666;BMP180;9980;51.020;7.772;2023-07-24T14:08:48;96264.00;;;25.80
19666;BMP180;9980;51.020;7.772;2023-07-24T14:11:15;96241.00;;;25.80
19666;BMP180;9980;51.020;7.772;2023-07-24T14:13:43;96256.00;;;25.70
19666;BMP180;9980;51.020;7.772;2023-07-24T14:16:11;96251.00;;;25.70
19666;BMP180;9980;51.020;7.772;2023-07-24T14:18:38;96246.00;;;25.70
19666;BMP180;9980;51.020;7.772;2023-07-24T14:21:05;96242.00;;;25.70
19666;BMP180;9980;51.020;7.772;2023-07-24T14:23:32;96235.00;;;25.70
19666;BMP180;9980;51.020;7.772;2023-07-24T14:25:59;96257.00;;;25.70
19666;BMP180;9980;51.020;7.772;2023-07-24T14:28:26;96248.00;;;25.60
19666;BMP180;9980;51.020;7.772;2023-07-24T14:30:53;96252.00;;;25.60
19666;BMP180;9980;51.020;7.772;2023-07-24T14:33:21;96258.00;;;25.60